createdAt,value
2023-03-26T00:21:20.789Z,1014
2023-03-26T00:51:30.039Z,1013
2023-03-26T01:21:37.770Z,1013
2023-03-26T01:51:49.935Z,1012
2023-03-26T02:21:59.075Z,1011
2023-03-26T02:52:07.848Z,1011
2023-03-26T03:22:14.856Z,1010
2023-03-26T03:52:22.493Z,1010
2023-03-26T04:22:32.056Z,1009
2023-03-26T04:52:38.651Z,1008
2023-03-26T05:22:44.479Z,1008
2023-03-26T05:52:53.328Z,1007
2023-03-26T06:23:05.607Z,1007
2023-03-26T06:54:27.748Z,1006
2023-03-26T07:54:41.505Z,1006
2023-03-26T08:24:46.761Z,1007
2023-03-26T08:54:57.482Z,1007
2023-03-26T09:25:05.147Z,1007
2023-03-26T09:55:17.246Z,1007
2023-03-26T10:25:25.071Z,1007
2023-03-26T11:01:05.541Z,1007
2023-03-26T11:31:01.887Z,1006
2023-03-26T12:01:17.214Z,1006
2023-03-26T13:11:16.183Z,1005
2023-03-26T13:41:26.835Z,1006
2023-03-26T14:12:48.028Z,1006
2023-03-26T14:42:47.218Z,1006
2023-03-26T15:12:56.813Z,1007
2023-03-26T16:10:40.796Z,1007
2023-03-26T16:40:31.220Z,1007
2023-03-26T17:11:50.015Z,1007
2023-03-26T17:45:21.881Z,1007
2023-03-26T18:24:55.492Z,1007
2023-03-26T19:04:44.796Z,1007
2023-03-26T20:04:43.558Z,1007
2023-03-26T20:34:51.264Z,1007
2023-03-26T21:05:00.063Z,1007
2023-03-26T21:35:09.278Z,1007
2023-03-26T22:05:17.211Z,1008
2023-03-26T23:05:36.888Z,1009
2023-03-26T23:35:45.936Z,1009
